Time;durP1;ratioP1;P1;durP2;ratioP2;P2;SDS_P1;SDS_P2;PMS_P1;PMS_P2;Temp;Humidity;BMP_temperature;BMP_pressure;BME280_temperature;BME280_humidity;BME280_pressure;Samples;Min_cycle;Max_cycle;Signal;HPM_P1;HPM_P2
2021/07/25 00:01:44;;;;;;;22.00;19.70;;;;;;;20.03;91.56;99722.94;5043636;28;20201;-76
2021/07/25 00:04:12;;;;;;;20.83;19.13;;;;;;;20.02;91.76;99712.50;5044622;28;20227;-77
2021/07/25 00:06:39;;;;;;;21.90;20.27;;;;;;;19.99;92.01;99705.56;5046381;28;20202;-77
2021/07/25 00:09:05;;;;;;;21.83;19.80;;;;;;;19.99;91.78;99707.38;5049803;28;20301;-77
2021/07/25 00:11:32;;;;;;;21.17;19.60;;;;;;;19.99;92.07;99700.28;5039583;28;20209;-77
2021/07/25 00:14:02;;;;;;;22.10;20.47;;;;;;;19.99;91.78;99697.63;5052275;28;20204;-76
2021/07/25 00:16:29;;;;;;;23.83;21.97;;;;;;;19.99;91.58;99704.75;5053520;28;20255;-78
2021/07/25 00:18:55;;;;;;;23.70;21.63;;;;;;;20.00;91.78;99698.50;5045252;28;20229;-76
2021/07/25 00:21:23;;;;;;;22.47;20.57;;;;;;;19.95;92.41;99677.63;5043054;28;20258;-77
2021/07/25 00:23:52;;;;;;;24.10;22.10;;;;;;;19.96;92.16;99695.22;5032555;28;20701;-77
2021/07/25 00:26:24;;;;;;;28.27;25.70;;;;;;;19.82;92.90;99668.81;5032874;28;20208;-77
2021/07/25 00:28:51;;;;;;;26.67;24.13;;;;;;;19.83;92.87;99667.88;5033481;28;20237;-78
2021/07/25 00:31:18;;;;;;;24.23;22.03;;;;;;;19.85;92.87;99665.97;5034297;28;20205;-77
2021/07/25 00:33:44;;;;;;;26.13;24.13;;;;;;;19.84;92.42;99680.16;5035027;28;20197;-77
2021/07/25 00:36:11;;;;;;;28.17;25.10;;;;;;;19.82;92.62;99682.06;5036232;28;20289;-77
2021/07/25 00:38:38;;;;;;;26.70;24.27;;;;;;;19.82;92.98;99675.00;5036336;28;20221;-77
2021/07/25 00:41:12;;;;;;;27.27;24.50;;;;;;;19.84;93.15;99672.22;5032933;28;20205;-77
2021/07/25 00:43:39;;;;;;;27.47;24.30;;;;;;;19.86;92.72;99680.94;5033118;28;20218;-77
2021/07/25 00:46:05;;;;;;;27.80;25.00;;;;;;;19.88;92.25;99692.25;5034140;28;20218;-77
2021/07/25 00:48:32;;;;;;;28.10;25.23;;;;;;;19.87;92.46;99695.84;5034371;28;20275;-78
2021/07/25 00:51:00;;;;;;;27.60;25.20;;;;;;;19.84;92.56;99698.69;5034019;28;20202;-77
2021/07/25 00:53:27;;;;;;;26.80;24.17;;;;;;;19.83;92.87;99683.78;5033624;28;20194;-77
2021/07/25 00:55:56;;;;;;;25.53;23.23;;;;;;;19.86;92.30;99703.91;5033778;28;20211;-78
2021/07/25 00:58:23;;;;;;;28.37;25.80;;;;;;;19.82;92.15;99704.13;5033127;28;20283;-78
2021/07/25 01:00:49;;;;;;;26.97;24.90;;;;;;;19.63;92.16;99703.66;5032917;28;20680;-78
2021/07/25 01:03:25;;;;;;;28.57;25.80;;;;;;;19.68;92.68;99695.38;5032738;28;20196;-77
2021/07/25 01:06:04;;;;;;;26.57;24.13;;;;;;;19.68;92.51;99687.44;5031304;28;20198;-77
2021/07/25 01:08:38;;;;;;;27.57;25.20;;;;;;;19.65;92.34;99697.28;5030767;28;20223;-77
2021/07/25 01:11:08;;;;;;;26.10;24.17;;;;;;;19.64;91.93;99700.91;5034895;28;20209;-78
2021/07/25 01:13:40;;;;;;;27.90;25.03;;;;;;;19.65;92.11;99693.81;5033307;28;20612;-77
2021/07/25 01:16:07;;;;;;;27.63;24.73;;;;;;;19.60;91.89;99699.44;5034361;28;20228;-77
2021/07/25 01:18:33;;;;;;;28.60;25.83;;;;;;;19.58;92.15;99681.94;5036412;28;20320;-77
2021/07/25 01:21:01;;;;;;;30.27;27.47;;;;;;;19.62;92.16;99684.28;5034234;28;20207;-78
2021/07/25 01:23:28;;;;;;;27.77;25.50;;;;;;;19.62;92.17;99689.56;5030826;28;20208;-77
2021/07/25 01:25:58;;;;;;;28.97;26.27;;;;;;;19.63;92.18;99691.25;5035780;28;20209;-77
2021/07/25 01:28:28;;;;;;;27.57;25.17;;;;;;;19.65;92.17;99692.00;5031383;28;20228;-77
2021/07/25 01:30:58;;;;;;;28.30;25.97;;;;;;;19.64;91.46;99711.50;5031875;28;20198;-77
2021/07/25 01:33:27;;;;;;;27.17;25.07;;;;;;;19.62;91.19;99724.00;5031190;28;20202;-77
2021/07/25 01:35:54;;;;;;;29.20;26.67;;;;;;;19.62;91.20;99739.88;5033334;28;20204;-77
2021/07/25 01:38:23;;;;;;;28.47;26.13;;;;;;;19.62;91.18;99744.31;5032177;28;20587;-77
2021/07/25 01:41:04;;;;;;;30.70;27.57;;;;;;;19.62;90.83;99745.19;5033558;28;20206;-78
2021/07/25 01:43:32;;;;;;;27.63;25.47;;;;;;;19.55;90.36;99749.19;5032183;28;20201;-77
2021/07/25 01:45:58;;;;;;;29.73;26.97;;;;;;;19.59;90.65;99752.47;5034580;28;20255;-77
2021/07/25 01:48:25;;;;;;;28.83;25.77;;;;;;;19.47;90.09;99777.97;5036956;28;20622;-78
2021/07/25 01:50:51;;;;;;;34.17;27.87;;;;;;;19.32;91.03;99745.41;5051458;28;20296;-77
2021/07/25 01:53:17;;;;;;;28.40;25.87;;;;;;;19.36;91.40;99736.31;5030703;28;20204;-77
2021/07/25 01:55:45;;;;;;;31.37;28.47;;;;;;;19.36;91.07;99748.72;5041178;28;20235;-77
2021/07/25 01:58:12;;;;;;;29.63;26.80;;;;;;;19.38;90.50;99768.81;5043431;28;20739;-78
2021/07/25 02:00:38;;;;;;;30.47;27.53;;;;;;;19.35;90.74;99755.81;5039517;28;20205;-77
2021/07/25 02:03:05;;;;;;;28.77;25.90;;;;;;;19.36;90.09;99776.03;5038878;28;20215;-78
2021/07/25 02:05:31;;;;;;;29.43;26.70;;;;;;;19.25;90.03;99799.72;5039620;28;20277;-78
2021/07/25 02:07:58;;;;;;;29.30;26.80;;;;;;;19.28;90.03;99794.19;5048976;28;20228;-77
2021/07/25 02:10:24;;;;;;;28.73;26.07;;;;;;;19.30;90.56;99781.72;5043031;28;20266;-77
2021/07/25 02:12:52;;;;;;;29.10;26.73;;;;;;;19.24;90.21;99788.25;5050286;28;20278;-77
2021/07/25 02:15:18;;;;;;;28.40;25.70;;;;;;;19.23;90.25;99796.31;5026782;28;20555;-78
2021/07/25 02:17:45;;;;;;;31.00;27.77;;;;;;;19.02;90.72;99787.97;5050024;28;20270;-75
2021/07/25 02:20:12;;;;;;;29.73;26.83;;;;;;;19.02;90.78;99794.09;5042373;28;20254;-77
2021/07/25 02:22:38;;;;;;;31.30;28.23;;;;;;;19.05;90.78;99798.38;5050909;28;20208;-78
2021/07/25 02:25:06;;;;;;;29.70;26.97;;;;;;;18.97;90.14;99824.47;5041842;28;20302;-77
2021/07/25 02:27:32;;;;;;;29.67;26.23;;;;;;;19.00;90.82;99803.09;5039078;28;20229;-77
2021/07/25 02:30:00;;;;;;;29.57;26.83;;;;;;;18.95;91.21;99789.28;5032742;28;20246;-77
2021/07/25 02:32:27;;;;;;;31.07;27.13;;;;;;;18.93;91.17;99778.84;5046277;28;20271;-77
2021/07/25 02:34:53;;;;;;;30.07;26.67;;;;;;;18.83;91.15;99788.31;5038447;28;20220;-77
2021/07/25 02:37:19;;;;;;;30.30;27.43;;;;;;;18.80;90.54;99829.00;5050663;28;20277;-77
2021/07/25 02:39:46;;;;;;;28.67;26.17;;;;;;;18.87;90.50;99831.25;5050802;28;20568;-78
2021/07/25 02:42:12;;;;;;;29.93;26.83;;;;;;;18.84;91.04;99819.94;5042434;28;20208;-78
2021/07/25 02:44:39;;;;;;;29.00;26.00;;;;;;;18.82;90.83;99807.75;5050081;28;20223;-75
2021/07/25 02:47:06;;;;;;;30.83;27.77;;;;;;;18.82;90.71;99808.59;5049907;28;20226;-77
2021/07/25 02:49:33;;;;;;;30.53;27.60;;;;;;;18.78;90.66;99814.16;5038832;28;20221;-78
2021/07/25 02:52:02;;;;;;;29.83;27.07;;;;;;;18.77;91.18;99794.81;5039070;28;20255;-77
2021/07/25 02:54:28;;;;;;;31.30;27.47;;;;;;;18.76;91.10;99786.97;5050674;28;20211;-77
2021/07/25 02:56:55;;;;;;;30.50;27.50;;;;;;;18.76;90.95;99786.97;5035903;28;20221;-78
2021/07/25 02:59:21;;;;;;;29.83;27.13;;;;;;;18.74;91.15;99781.75;5033451;28;20204;-77
2021/07/25 03:01:50;;;;;;;27.53;25.23;;;;;;;18.71;90.71;99813.72;5036737;28;20282;-78
2021/07/25 03:04:18;;;;;;;28.63;25.63;;;;;;;18.69;90.56;99812.97;5050234;28;20708;-77
2021/07/25 03:06:44;;;;;;;28.97;26.00;;;;;;;18.65;90.11;99829.94;5046609;28;20212;-77
2021/07/25 03:09:10;;;;;;;27.47;25.33;;;;;;;18.65;89.85;99846.66;5039177;28;20199;-78
2021/07/25 03:11:39;;;;;;;28.83;25.87;;;;;;;18.69;90.03;99827.94;5045615;28;20212;-77
2021/07/25 03:14:05;;;;;;;27.07;24.53;;;;;;;18.68;90.42;99827.09;5046937;28;20288;-78
2021/07/25 03:16:32;;;;;;;26.70;24.47;;;;;;;18.67;90.07;99835.97;5034889;28;20206;-77
2021/07/25 03:18:58;;;;;;;25.67;23.27;;;;;;;18.64;90.21;99829.09;5039860;28;20232;-77
2021/07/25 03:21:26;;;;;;;26.43;23.80;;;;;;;18.63;90.36;99822.13;5053601;28;20205;-77
2021/07/25 03:23:53;;;;;;;26.97;24.73;;;;;;;18.59;90.71;99811.81;5038490;28;20538;-77
2021/07/25 03:26:19;;;;;;;26.57;24.07;;;;;;;18.56;90.73;99814.66;5037772;28;20265;-78
2021/07/25 03:28:46;;;;;;;23.00;21.17;;;;;;;18.57;90.48;99824.28;5035069;28;20607;-78
2021/07/25 03:31:12;;;;;;;23.57;21.73;;;;;;;18.53;90.19;99842.13;5042625;28;20678;-78
2021/07/25 03:33:39;;;;;;;27.73;23.07;;;;;;;18.51;89.87;99856.38;5042842;28;20261;-78
2021/07/25 03:36:05;;;;;;;25.70;23.23;;;;;;;18.46;90.32;99846.09;5040020;28;20218;-78
2021/07/25 03:38:33;;;;;;;24.87;22.67;;;;;;;18.48;90.17;99846.00;5037275;28;20221;-77
2021/07/25 03:41:01;;;;;;;24.60;22.23;;;;;;;18.46;90.30;99846.94;5045177;28;20212;-78
2021/07/25 03:43:29;;;;;;;25.80;23.53;;;;;;;18.46;90.40;99843.44;5037013;28;20300;-77
2021/07/25 03:45:56;;;;;;;25.70;23.60;;;;;;;18.42;90.49;99837.50;5026613;28;20698;-78
2021/07/25 03:48:23;;;;;;;25.63;23.53;;;;;;;18.42;90.77;99837.50;5049556;28;20257;-78
2021/07/25 03:50:49;;;;;;;28.13;23.83;;;;;;;18.43;90.58;99840.97;5052576;28;20204;-78
2021/07/25 03:53:16;;;;;;;25.20;23.13;;;;;;;18.44;90.40;99840.03;5046329;28;20208;-77
2021/07/25 03:55:45;;;;;;;26.10;23.43;;;;;;;18.31;90.30;99839.94;5044057;28;20204;-78
2021/07/25 03:58:11;;;;;;;25.80;23.83;;;;;;;18.29;90.36;99849.75;5039695;28;20221;-77
2021/07/25 04:00:38;;;;;;;23.63;21.73;;;;;;;18.29;90.35;99840.97;5034080;28;20241;-78
2021/07/25 04:03:05;;;;;;;26.40;23.73;;;;;;;18.26;90.46;99850.78;5033324;28;20274;-78
2021/07/25 04:05:31;;;;;;;24.20;21.93;;;;;;;18.22;90.09;99859.84;5048379;28;20281;-77
2021/07/25 04:07:58;;;;;;;22.70;20.80;;;;;;;18.24;90.03;99860.59;5025899;28;20216;-78
2021/07/25 04:10:24;;;;;;;22.27;20.27;;;;;;;18.23;90.29;99856.25;5048777;28;20211;-77
2021/07/25 04:12:52;;;;;;;23.47;21.57;;;;;;;18.20;90.23;99858.25;5045029;28;20204;-78
2021/07/25 04:15:18;;;;;;;21.77;19.87;;;;;;;18.23;90.70;99847.47;5045276;28;20195;-78
2021/07/25 04:17:44;;;;;;;25.40;22.97;;;;;;;18.23;90.91;99827.19;5044215;28;20231;-77
2021/07/25 04:20:11;;;;;;;23.13;21.33;;;;;;;18.26;91.15;99823.53;5047961;28;20195;-78
2021/07/25 04:22:39;;;;;;;23.60;21.20;;;;;;;18.29;91.04;99836.53;5041137;28;20213;-76
2021/07/25 04:25:08;;;;;;;23.80;21.43;;;;;;;18.29;91.16;99830.41;5044606;28;20274;-77
2021/07/25 04:27:35;;;;;;;23.50;21.37;;;;;;;18.31;91.40;99832.00;5045197;28;20236;-78
2021/07/25 04:30:03;;;;;;;22.70;20.93;;;;;;;18.34;90.98;99833.63;5050879;28;20589;-77
2021/07/25 04:32:30;;;;;;;22.60;20.70;;;;;;;18.35;90.79;99844.09;5043833;28;20257;-76
2021/07/25 04:34:56;;;;;;;23.70;21.90;;;;;;;18.34;90.91;99841.56;5043534;28;20206;-78
2021/07/25 04:37:25;;;;;;;23.17;21.23;;;;;;;18.35;91.00;99838.78;5046387;28;20230;-78
2021/07/25 04:39:52;;;;;;;24.23;22.23;;;;;;;18.36;91.41;99840.50;5042815;28;20213;-78
2021/07/25 04:42:22;;;;;;;21.93;20.20;;;;;;;18.36;91.10;99837.03;5052220;28;20204;-78
2021/07/25 04:44:54;;;;;;;22.27;20.07;;;;;;;18.37;91.29;99836.06;5042175;28;20702;-77
2021/07/25 04:47:32;;;;;;;21.87;20.10;;;;;;;18.37;91.19;99841.34;5045686;28;20300;-77
2021/07/25 04:50:05;;;;;;;24.13;22.13;;;;;;;18.34;92.01;99831.00;5043158;28;20263;-77
2021/07/25 04:52:37;;;;;;;24.20;21.97;;;;;;;18.32;92.82;99817.03;5037073;28;20681;-77
2021/07/25 04:55:07;;;;;;;23.10;21.17;;;;;;;18.33;92.54;99819.53;5040986;28;20682;-77
2021/07/25 04:57:39;;;;;;;23.40;21.40;;;;;;;18.37;92.41;99813.13;5037864;28;20234;-77
2021/07/25 05:00:06;;;;;;;21.57;19.80;;;;;;;18.41;92.15;99822.59;5041369;28;20207;-77
2021/07/25 05:02:37;;;;;;;20.83;19.13;;;;;;;18.44;91.88;99848.81;5052377;28;20208;-76
2021/07/25 05:05:04;;;;;;;21.57;19.83;;;;;;;18.49;92.11;99845.88;5051390;28;20582;-77
2021/07/25 05:07:35;;;;;;;22.27;20.37;;;;;;;18.52;92.05;99836.94;5043972;28;20227;-77
2021/07/25 05:10:02;;;;;;;22.40;20.70;;;;;;;18.54;92.07;99827.13;5043160;28;20207;-78
2021/07/25 05:12:33;;;;;;;23.83;21.83;;;;;;;18.53;92.62;99807.78;5041736;28;20212;-76
2021/07/25 05:15:03;;;;;;;24.10;22.20;;;;;;;18.54;92.98;99804.16;5045043;28;20261;-77
2021/07/25 05:17:36;;;;;;;22.87;21.07;;;;;;;18.57;92.87;99804.00;5044012;28;20748;-77
2021/07/25 05:20:06;;;;;;;24.47;22.40;;;;;;;18.54;93.05;99792.75;5042344;28;20204;-77
2021/07/25 05:22:39;;;;;;;24.00;22.10;;;;;;;18.54;93.48;99787.47;5037908;28;20257;-77
2021/07/25 05:25:07;;;;;;;23.70;22.00;;;;;;;18.57;93.28;99782.84;5043813;28;20282;-77
2021/07/25 05:27:39;;;;;;;23.30;21.50;;;;;;;18.63;93.41;99776.31;5041345;28;20223;-77
2021/07/25 05:30:08;;;;;;;22.93;20.93;;;;;;;18.69;93.22;99793.56;5037209;28;20233;-78
2021/07/25 05:32:34;;;;;;;22.37;20.67;;;;;;;18.70;93.03;99809.34;5045352;28;20203;-77
2021/07/25 05:35:00;;;;;;;22.77;20.70;;;;;;;18.74;93.37;99800.28;5043127;28;20202;-77
2021/07/25 05:37:28;;;;;;;24.17;21.93;;;;;;;18.79;93.22;99799.97;5039532;28;20241;-77
2021/07/25 05:39:54;;;;;;;21.97;19.87;;;;;;;18.85;93.07;99807.59;5048485;28;20674;-77
2021/07/25 05:42:21;;;;;;;23.50;21.60;;;;;;;18.87;93.51;99794.22;5040368;28;20201;-77
2021/07/25 05:44:48;;;;;;;24.83;22.27;;;;;;;18.86;93.83;99782.81;5039751;28;20205;-77
2021/07/25 05:47:14;;;;;;;23.17;21.47;;;;;;;18.83;94.24;99777.75;5040543;28;20233;-77
2021/07/25 05:49:40;;;;;;;22.87;20.93;;;;;;;18.87;94.00;99789.81;5037584;28;20226;-77
2021/07/25 05:52:08;;;;;;;23.03;20.97;;;;;;;18.90;94.38;99770.25;5041578;28;20195;-78
2021/07/25 05:54:35;;;;;;;20.60;18.83;;;;;;;18.91;94.39;99771.94;5037043;28;20229;-77
2021/07/25 05:57:02;;;;;;;21.43;19.47;;;;;;;18.97;94.37;99776.84;5035438;28;20201;-77
2021/07/25 05:59:28;;;;;;;20.00;18.27;;;;;;;19.02;94.16;99783.53;5036610;28;20200;-78
2021/07/25 06:01:55;;;;;;;20.73;18.93;;;;;;;19.08;93.87;99789.38;5039921;28;20573;-77
2021/07/25 06:04:21;;;;;;;22.33;19.03;;;;;;;19.11;93.97;99783.88;5042073;28;20212;-78
2021/07/25 06:06:47;;;;;;;22.40;20.03;;;;;;;19.13;94.53;99774.06;5045093;28;20225;-76
2021/07/25 06:09:14;;;;;;;24.20;21.60;;;;;;;19.07;94.81;99769.16;5032193;28;20217;-77
2021/07/25 06:11:43;;;;;;;21.77;19.93;;;;;;;19.03;95.20;99752.66;5036907;28;20246;-77
2021/07/25 06:14:09;;;;;;;22.80;20.83;;;;;;;19.06;95.22;99747.13;5041297;28;20227;-77
2021/07/25 06:16:36;;;;;;;21.87;20.00;;;;;;;18.98;95.83;99736.22;5032081;28;20261;-78
2021/07/25 06:19:02;;;;;;;22.37;20.20;;;;;;;18.97;96.21;99730.09;5039304;28;20223;-77
2021/07/25 06:21:28;;;;;;;24.43;22.00;;;;;;;18.92;96.66;99715.47;5042577;28;20200;-77
2021/07/25 06:23:56;;;;;;;23.93;21.67;;;;;;;18.91;97.57;99695.25;5042215;28;20193;-77
2021/07/25 06:26:23;;;;;;;24.93;22.27;;;;;;;18.82;98.15;99679.03;5033291;28;20229;-77
2021/07/25 06:28:51;;;;;;;22.60;20.57;;;;;;;18.85;98.53;99670.91;5037885;28;20292;-77
2021/07/25 06:31:17;;;;;;;22.63;20.67;;;;;;;18.89;98.56;99675.97;5039248;28;20201;-78
2021/07/25 06:33:44;;;;;;;25.80;22.63;;;;;;;18.85;98.70;99681.47;5046236;28;20212;-77
2021/07/25 06:36:11;;;;;;;25.97;22.03;;;;;;;18.89;99.10;99676.84;5046667;28;20200;-77
2021/07/25 06:38:38;;;;;;;24.60;22.37;;;;;;;18.90;99.52;99667.94;5036194;28;20230;-77
2021/07/25 06:41:05;;;;;;;24.40;22.23;;;;;;;18.90;99.44;99678.53;5035756;28;20207;-77
2021/07/25 06:43:32;;;;;;;22.17;19.73;;;;;;;18.99;99.63;99685.88;5051020;28;20216;-77
2021/07/25 06:46:00;;;;;;;24.93;22.50;;;;;;;19.01;100.00;99680.47;5036049;28;20294;-78
2021/07/25 06:48:28;;;;;;;25.83;23.03;;;;;;;19.04;100.00;99673.16;5042945;28;20274;-76
2021/07/25 06:50:57;;;;;;;21.40;19.27;;;;;;;19.02;100.00;99685.66;5045282;28;20209;-79
2021/07/25 06:53:25;;;;;;;27.20;23.07;;;;;;;19.08;100.00;99686.19;5044154;28;20230;-78
2021/07/25 06:55:53;;;;;;;22.77;20.50;;;;;;;19.10;100.00;99676.38;5042050;28;20201;-78
2021/07/25 06:58:20;;;;;;;23.80;21.37;;;;;;;19.16;100.00;99684.72;5035970;28;20236;-77
2021/07/25 07:00:46;;;;;;;23.67;21.57;;;;;;;19.18;100.00;99682.00;5039338;28;20407;-77
2021/07/25 07:03:18;;;;;;;21.43;19.67;;;;;;;19.27;100.00;99688.47;5044472;28;20244;-76
2021/07/25 07:05:44;;;;;;;20.87;19.07;;;;;;;19.37;99.98;99713.38;5041029;28;20213;-77
2021/07/25 07:08:11;;;;;;;24.50;22.33;;;;;;;19.41;100.00;99723.63;5041387;28;20273;-78
2021/07/25 07:10:39;;;;;;;23.53;21.23;;;;;;;19.46;100.00;99731.25;5038661;28;20237;-77
2021/07/25 07:13:07;;;;;;;22.00;19.53;;;;;;;19.53;98.72;99756.38;5036203;28;20200;-77
2021/07/25 07:15:34;;;;;;;20.07;18.57;;;;;;;19.56;96.04;99848.84;5037904;28;20569;-77
2021/07/25 07:18:01;;;;;;;20.17;18.13;;;;;;;19.67;96.96;99828.75;5034350;28;20714;-75
2021/07/25 07:20:30;;;;;;;22.53;20.43;;;;;;;19.72;96.55;99837.25;5040451;28;20212;-79
2021/07/25 07:22:58;;;;;;;17.43;16.10;;;;;;;19.79;92.61;99947.97;5037965;28;20271;-76
2021/07/25 07:25:26;;;;;;;17.27;15.57;;;;;;;19.90;95.26;99867.81;5035336;28;20679;-78
2021/07/25 07:27:53;;;;;;;15.73;14.53;;;;;;;19.91;90.30;100022.31;5037304;28;20240;-80
2021/07/25 07:30:20;;;;;;;14.70;13.23;;;;;;;19.99;86.60;100141.88;5038731;28;20203;-80
2021/07/25 07:32:47;;;;;;;15.70;14.50;;;;;;;20.12;87.84;100111.00;5038607;28;21764;-76
2021/07/25 07:35:13;;;;;;;14.47;13.20;;;;;;;20.15;88.30;100084.31;5039022;28;20224;-80
2021/07/25 07:37:41;;;;;;;15.20;14.00;;;;;;;20.19;90.32;100022.19;5038948;28;20221;-78
2021/07/25 07:40:08;;;;;;;15.13;14.00;;;;;;;20.24;87.77;100093.47;5038949;28;20221;-81
2021/07/25 07:42:34;;;;;;;16.70;15.50;;;;;;;20.27;90.21;100010.25;5036607;28;20213;-81
2021/07/25 07:45:01;;;;;;;17.00;15.70;;;;;;;20.34;91.23;99983.22;5038509;28;20207;-81
2021/07/25 07:47:27;;;;;;;16.40;15.23;;;;;;;20.39;87.86;100081.00;5040490;28;20287;-80
2021/07/25 07:49:54;;;;;;;14.93;13.83;;;;;;;20.40;87.23;100104.78;5039094;28;20198;-79
2021/07/25 07:52:20;;;;;;;16.37;15.10;;;;;;;20.54;89.23;100047.34;5038580;28;20206;-79
2021/07/25 07:54:48;;;;;;;16.40;15.17;;;;;;;20.63;90.54;99988.38;5036022;28;20272;-79
2021/07/25 07:57:14;;;;;;;14.63;13.43;;;;;;;20.72;89.69;100009.00;5035526;28;20217;-80
2021/07/25 07:59:40;;;;;;;16.90;15.40;;;;;;;20.65;92.58;99922.81;5038829;28;20716;-79
2021/07/25 08:02:08;;;;;;;15.83;14.53;;;;;;;20.57;88.39;100013.50;5036709;28;20213;-78
2021/07/25 08:04:34;;;;;;;14.97;13.73;;;;;;;20.65;86.26;100148.28;5038867;28;20217;-80
2021/07/25 08:07:01;;;;;;;17.60;16.07;;;;;;;20.72;90.14;100024.91;5040366;28;20282;-80
2021/07/25 08:09:27;;;;;;;15.10;13.83;;;;;;;20.76;88.69;100049.44;5034907;28;20806;-78
2021/07/25 08:11:55;;;;;;;15.00;13.90;;;;;;;20.82;90.00;99995.94;5034040;28;20202;-77
2021/07/25 08:14:22;;;;;;;14.73;13.53;;;;;;;20.88;91.07;99945.13;5033925;28;20267;-77
2021/07/25 08:16:49;;;;;;;14.50;13.50;;;;;;;20.89;87.87;100063.56;5035877;28;20201;-76
2021/07/25 08:19:16;;;;;;;13.20;12.20;;;;;;;20.91;79.89;100371.22;5036339;28;20205;-74
2021/07/25 08:21:43;;;;;;;12.60;11.70;;;;;;;21.06;80.41;100358.81;5036038;28;20340;-77
2021/07/25 08:24:10;;;;;;;13.73;12.73;;;;;;;21.21;78.27;100438.31;5033478;28;20200;-76
2021/07/25 08:26:37;;;;;;;12.77;11.73;;;;;;;21.31;77.87;100445.72;5033108;28;20237;-76
2021/07/25 08:29:04;;;;;;;13.00;12.10;;;;;;;21.32;76.68;100474.78;5031561;28;20221;-76
2021/07/25 08:31:31;;;;;;;15.00;13.67;;;;;;;21.37;84.41;100193.88;5032794;28;20201;-77
2021/07/25 08:33:57;;;;;;;13.00;12.10;;;;;;;21.34;76.92;100446.34;5033479;28;20258;-79
2021/07/25 08:36:24;;;;;;;13.77;12.87;;;;;;;21.53;81.54;100347.78;5040198;28;20244;-79
2021/07/25 08:38:51;;;;;;;12.10;11.20;;;;;;;21.50;77.62;100344.47;5038038;28;20267;-78
2021/07/25 08:41:28;;;;;;;11.90;10.93;;;;;;;21.56;72.19;100597.25;5042167;28;20220;-79
2021/07/25 08:44:17;;;;;;;12.33;11.10;;;;;;;21.65;75.71;100508.16;5037138;28;20234;-78
2021/07/25 08:46:44;;;;;;;11.77;10.97;;;;;;;21.70;75.24;100479.47;5031108;28;20239;-78
2021/07/25 08:49:18;;;;;;;11.27;10.37;;;;;;;21.75;73.88;100500.47;5027192;28;20230;-77
2021/07/25 08:51:56;;;;;;;11.80;10.80;;;;;;;21.94;74.52;100514.25;5029168;28;20202;-76
2021/07/25 08:54:23;;;;;;;11.33;10.33;;;;;;;22.01;74.23;100490.78;5028195;28;20214;-77
2021/07/25 08:56:58;;;;;;;11.83;11.03;;;;;;;22.07;75.51;100384.03;5024707;28;20229;-76
2021/07/25 08:59:29;;;;;;;10.57;9.87;;;;;;;22.17;73.11;100554.41;5024526;28;20212;-76
2021/07/25 09:02:00;;;;;;;10.93;10.03;;;;;;;22.32;72.09;100590.69;5024190;28;20213;-76
2021/07/25 09:04:27;;;;;;;10.87;9.97;;;;;;;22.41;70.95;100629.13;5024456;28;20215;-77
2021/07/25 09:06:56;;;;;;;10.53;9.77;;;;;;;22.54;71.26;100619.38;5024665;28;20237;-76
2021/07/25 09:09:22;;;;;;;10.93;9.93;;;;;;;22.51;67.42;100765.91;5024285;28;20237;-76
2021/07/25 09:11:50;;;;;;;9.77;9.07;;;;;;;22.62;67.90;100751.06;5024088;28;20265;-76
2021/07/25 09:14:17;;;;;;;11.77;10.93;;;;;;;22.76;74.64;100482.22;5024733;28;20219;-78
2021/07/25 09:16:44;;;;;;;11.57;10.57;;;;;;;22.77;74.53;100516.72;5023896;28;20206;-74
2021/07/25 09:19:11;;;;;;;10.37;9.57;;;;;;;22.77;75.18;100449.31;5022614;28;20236;-73
2021/07/25 09:21:43;;;;;;;11.47;10.57;;;;;;;22.87;73.83;100534.69;5022154;28;20253;-73
2021/07/25 09:24:22;;;;;;;10.30;9.50;;;;;;;22.92;73.57;100466.88;5022747;28;20208;-74
2021/07/25 09:26:51;;;;;;;11.10;10.30;;;;;;;22.69;66.25;100771.00;5020794;28;20702;-73
2021/07/25 09:29:18;;;;;;;10.87;9.83;;;;;;;22.71;72.20;100566.84;5022432;28;20211;-76
2021/07/25 09:31:45;;;;;;;10.57;9.77;;;;;;;22.56;69.90;100574.06;5023065;28;20293;-74
2021/07/25 09:34:12;;;;;;;11.17;10.27;;;;;;;22.56;74.60;100511.03;5022518;28;20229;-76
2021/07/25 09:36:39;;;;;;;10.87;10.07;;;;;;;22.52;78.79;100311.84;5022453;28;20201;-75
2021/07/25 09:39:06;;;;;;;11.33;10.57;;;;;;;22.44;72.07;100489.72;5022194;28;20265;-75
2021/07/25 09:41:33;;;;;;;11.30;10.50;;;;;;;22.35;72.13;100526.63;5023158;28;20214;-76
2021/07/25 09:44:08;;;;;;;10.47;9.57;;;;;;;22.44;75.40;100407.25;5022419;28;20211;-73
2021/07/25 09:46:48;;;;;;;10.80;10.10;;;;;;;22.48;78.76;100251.84;5023064;28;20360;-76
2021/07/25 09:49:15;;;;;;;11.07;10.13;;;;;;;22.48;81.44;100169.38;5023015;28;20201;-77
2021/07/25 09:51:41;;;;;;;11.50;10.63;;;;;;;22.54;79.29;100262.03;5022702;28;20209;-75
2021/07/25 09:54:08;;;;;;;10.20;9.40;;;;;;;22.64;76.49;100371.31;5022925;28;20237;-75
2021/07/25 09:56:35;;;;;;;10.20;9.40;;;;;;;22.73;78.90;100253.56;5023415;28;20210;-75
2021/07/25 09:59:01;;;;;;;9.40;8.70;;;;;;;22.83;74.90;100426.75;5022647;28;20279;-74
2021/07/25 10:01:35;;;;;;;10.20;9.40;;;;;;;22.93;72.86;100515.63;5022137;28;20224;-75
2021/07/25 10:04:12;;;;;;;9.07;8.43;;;;;;;22.89;69.68;100634.78;5021940;28;20756;-75
2021/07/25 10:06:39;;;;;;;10.63;9.63;;;;;;;23.11;75.65;100404.34;5022571;28;20228;-74
2021/07/25 10:09:08;;;;;;;11.00;10.13;;;;;;;23.23;78.64;100265.00;5022454;28;20285;-75
2021/07/25 10:11:35;;;;;;;9.53;8.80;;;;;;;23.26;71.54;100551.56;5022495;28;20216;-73
2021/07/25 10:14:02;;;;;;;9.53;8.83;;;;;;;23.46;72.31;100532.34;5022849;28;20213;-74
2021/07/25 10:16:28;;;;;;;9.83;9.23;;;;;;;23.69;71.08;100559.16;5022761;28;20219;-75
2021/07/25 10:18:58;;;;;;;9.37;8.57;;;;;;;23.90;70.14;100594.09;5022009;28;20440;-74
2021/07/25 10:21:27;;;;;;;9.50;8.90;;;;;;;24.05;71.46;100554.81;5022899;28;20264;-74
2021/07/25 10:23:56;;;;;;;10.23;9.43;;;;;;;24.02;68.35;100654.53;5022659;28;20208;-75
2021/07/25 10:26:25;;;;;;;10.37;9.47;;;;;;;24.21;70.94;100551.84;5023018;28;20271;-75
2021/07/25 10:28:53;;;;;;;9.90;9.20;;;;;;;24.20;69.80;100567.00;5022162;28;20936;-75
2021/07/25 10:31:22;;;;;;;9.70;8.97;;;;;;;24.31;73.05;100455.00;5022513;28;20264;-74
2021/07/25 10:33:49;;;;;;;9.53;9.03;;;;;;;24.52;71.86;100475.72;5021945;28;20224;-74
2021/07/25 10:36:17;;;;;;;9.57;8.87;;;;;;;24.63;66.97;100693.75;5021998;28;20815;-75
2021/07/25 10:38:46;;;;;;;9.77;9.00;;;;;;;24.78;68.79;100656.09;5021380;28;20272;-74
2021/07/25 10:41:16;;;;;;;9.83;9.13;;;;;;;24.82;71.54;100541.91;5021831;28;20839;-74
2021/07/25 10:43:42;;;;;;;10.07;9.17;;;;;;;24.55;71.39;100519.00;5021798;28;20711;-73
2021/07/25 10:46:17;;;;;;;9.53;8.93;;;;;;;24.32;71.10;100496.72;5021861;28;20216;-75
2021/07/25 10:49:09;;;;;;;9.57;8.70;;;;;;;24.37;73.37;100448.34;5022431;28;20224;-73
2021/07/25 10:51:37;;;;;;;9.87;9.27;;;;;;;24.15;76.70;100289.09;5022487;28;20796;-73
2021/07/25 10:54:35;;;;;;;9.20;8.60;;;;;;;24.01;76.24;100322.19;5021454;28;21108;-73
2021/07/25 10:57:03;;;;;;;9.60;8.90;;;;;;;23.99;75.21;100358.78;5021983;28;20215;-74
2021/07/25 10:59:44;;;;;;;9.80;9.10;;;;;;;23.95;73.85;100406.16;5022837;28;20219;-75
2021/07/25 11:02:17;;;;;;;9.97;9.37;;;;;;;23.82;72.92;100466.69;5021568;28;20209;-72
2021/07/25 11:05:02;;;;;;;9.93;9.33;;;;;;;23.79;75.75;100346.97;5020979;28;20216;-72
2021/07/25 11:07:38;;;;;;;10.50;9.70;;;;;;;23.71;77.42;100269.38;5021026;28;20264;-74
2021/07/25 11:10:10;;;;;;;10.27;9.57;;;;;;;23.50;78.51;100240.72;5022420;28;20224;-73
2021/07/25 11:13:16;;;;;;;10.30;9.60;;;;;;;23.52;79.37;100198.81;5021344;28;20724;-73
2021/07/25 11:15:43;;;;;;;11.10;10.27;;;;;;;23.36;79.09;100222.28;5025582;28;20204;-73
2021/07/25 11:18:11;;;;;;;10.10;9.40;;;;;;;23.01;80.71;100164.50;5025622;28;20222;-73
2021/07/25 11:20:57;;;;;;;10.10;9.40;;;;;;;22.98;79.37;100232.16;5025787;28;20209;-74
2021/07/25 11:23:48;;;;;;;9.77;9.17;;;;;;;22.95;80.35;100178.28;5025232;28;20205;-74